Aviation Digital Data Service (ADDS)

Output produced by METARs form (1102 UTC 19 February 2019)
found at http://www.aviationweather.gov/metar/data/
 
Forecast for: KFLL (FT LAUDERD/HOLLY, FL, US)
Text: KFLL 190925Z 1909/2012 13006KT P6SM FEW015 BKN080
Forecast period: 0900 to 1500 UTC 19 February 2019
Forecast type: FROM: standard forecast or significant change
Winds: from the SE (130 degrees) at 7 MPH (6 knots; 3.1 m/s)
Visibility: 6 or more miles 10+ km)
Ceiling: 8000 feet AGL
Clouds: few clouds at 1500 feet AGL
broken clouds at 8000 feet AGL
Weather: no significant weather forecast for this period
Text: FM191500 10015KT P6SM SCT030 BKN080
Forecast period: 1500 UTC 19 February 2019 to 0000 UTC 20 February 2019
Forecast type: FROM: standard forecast or significant change
Winds: from the E (100 degrees) at 17 MPH (15 knots; 7.7 m/s)
Visibility: 6 or more miles 10+ km)
Ceiling: 8000 feet AGL
Clouds: scattered clouds at 3000 feet AGL
broken clouds at 8000 feet AGL
Weather: no significant weather forecast for this period
Text: FM200000 12010KT P6SM SCT040 BKN060 BKN080
Forecast period: 0000 to 1200 UTC 20 February 2019
Forecast type: FROM: standard forecast or significant change
Winds: from the ESE (120 degrees) at 12 MPH (10 knots; 5.1 m/s)
Visibility: 6 or more miles 10+ km)
Ceiling: 6000 feet AGL
Clouds: scattered clouds at 4000 feet AGL
broken clouds at 6000 feet AGL
broken clouds at 8000 feet AGL
Weather: no significant weather forecast for this period